Time;durP1;ratioP1;P1;durP2;ratioP2;P2;SDS_P1;SDS_P2;PMS_P1;PMS_P2;Temp;Humidity;BMP_temperature;BMP_pressure;BME280_temperature;BME280_humidity;BME280_pressure;Samples;Min_cycle;Max_cycle;Signal;HPM_P1;HPM_P2
2024/03/12 00:01:46;;;;;;;37.05;29.15;;;;;;;9.65;100.00;100859.41;5288408;28;20274;-83
2024/03/12 00:04:18;;;;;;;34.83;29.55;;;;;;;9.63;100.00;100863.94;5288121;28;20040;-83
2024/03/12 00:06:50;;;;;;;36.97;29.95;;;;;;;9.57;100.00;100861.81;5284567;28;20052;-85
2024/03/12 00:09:22;;;;;;;35.35;29.45;;;;;;;9.57;100.00;100861.81;5285178;28;20031;-83
2024/03/12 00:11:55;;;;;;;35.95;30.20;;;;;;;9.51;100.00;100859.72;5287188;28;20031;-83
2024/03/12 00:14:26;;;;;;;35.40;30.42;;;;;;;9.63;100.00;100873.59;5268104;28;20035;-83
2024/03/12 00:16:59;;;;;;;38.58;31.05;;;;;;;9.58;100.00;100878.34;5285882;28;20425;-84
2024/03/12 00:19:33;;;;;;;39.38;30.08;;;;;;;9.58;100.00;100878.34;5287127;28;20028;-84
2024/03/12 00:22:05;;;;;;;36.83;30.83;;;;;;;9.52;100.00;100871.81;5296533;28;20131;-85
2024/03/12 00:24:40;;;;;;;36.78;31.13;;;;;;;9.57;100.00;100892.38;5298422;28;20073;-84
2024/03/12 00:27:12;;;;;;;38.38;29.35;;;;;;;9.59;100.00;100893.09;5299686;28;20031;-85
2024/03/12 00:29:45;;;;;;;35.53;29.65;;;;;;;9.60;100.00;100886.91;5301736;28;20039;-83
2024/03/12 00:32:18;;;;;;;33.50;26.52;;;;;;;9.66;100.00;100895.09;5295982;28;20023;-83
2024/03/12 00:34:50;;;;;;;28.73;23.92;;;;;;;9.65;100.00;100895.19;5299278;28;20043;-84
2024/03/12 00:37:22;;;;;;;26.73;23.83;;;;;;;9.65;100.00;100896.03;5277014;28;20608;-85
2024/03/12 00:39:55;;;;;;;24.85;21.55;;;;;;;9.60;100.00;100898.19;5269435;28;20036;-84
2024/03/12 00:42:27;;;;;;;25.77;22.70;;;;;;;9.60;100.00;100898.19;5285989;28;20036;-84
2024/03/12 00:44:59;;;;;;;26.50;23.20;;;;;;;9.56;100.00;100901.19;5272986;28;20044;-84
2024/03/12 00:47:33;;;;;;;28.40;22.70;;;;;;;9.56;100.00;100901.19;5292692;28;20032;-85
2024/03/12 00:50:07;;;;;;;25.88;22.33;;;;;;;9.46;100.00;100885.38;5291158;28;20462;-83
2024/03/12 00:52:40;;;;;;;26.25;22.67;;;;;;;9.54;100.00;100903.06;5295419;28;20031;-85
2024/03/12 00:55:16;;;;;;;25.33;21.50;;;;;;;9.52;100.00;100900.59;5296673;28;20035;-85
2024/03/12 00:57:48;;;;;;;24.17;19.20;;;;;;;9.54;100.00;100898.66;5295240;28;20036;-85
2024/03/12 01:00:25;;;;;;;23.50;20.10;;;;;;;9.57;100.00;100911.50;5295528;28;20027;-84
2024/03/12 01:03:00;;;;;;;22.90;19.60;;;;;;;9.54;100.00;100901.28;5295167;28;20413;-84
2024/03/12 01:05:35;;;;;;;20.23;17.88;;;;;;;9.60;100.00;100923.53;5295621;28;20505;-83
2024/03/12 01:08:08;;;;;;;21.05;18.80;;;;;;;9.55;100.00;100916.06;5295628;28;20044;-84
2024/03/12 01:10:40;;;;;;;21.67;17.58;;;;;;;9.55;100.00;100912.59;5294589;28;20406;-84
2024/03/12 01:13:12;;;;;;;22.42;18.88;;;;;;;9.56;100.00;100922.09;5296125;28;20458;-84
2024/03/12 01:15:45;;;;;;;22.90;19.65;;;;;;;9.56;100.00;100925.53;5276544;28;20054;-83
2024/03/12 01:18:17;;;;;;;26.88;20.42;;;;;;;9.62;100.00;100934.69;5277988;28;20043;-85
2024/03/12 01:20:50;;;;;;;24.75;19.95;;;;;;;9.44;100.00;100926.53;5296391;28;20060;-83
2024/03/12 01:23:22;;;;;;;28.02;21.67;;;;;;;9.46;100.00;100932.44;5294705;28;20024;-85
2024/03/12 01:25:54;;;;;;;31.40;22.25;;;;;;;9.48;100.00;100941.03;5296669;28;20028;-83
2024/03/12 01:28:26;;;;;;;34.38;23.98;;;;;;;9.48;100.00;100943.63;5292948;28;20036;-83
2024/03/12 01:30:57;;;;;;;33.20;23.17;;;;;;;9.44;100.00;100952.69;5295578;28;20043;-84
2024/03/12 01:33:30;;;;;;;35.95;24.17;;;;;;;9.41;100.00;100950.28;5296346;28;20028;-83
2024/03/12 01:36:05;;;;;;;36.42;25.30;;;;;;;9.40;100.00;100939.00;5295394;28;20237;-85
2024/03/12 01:38:54;;;;;;;36.70;24.05;;;;;;;9.38;100.00;100940.91;5288077;28;20067;-83
2024/03/12 01:41:26;;;;;;;32.95;23.02;;;;;;;9.35;100.00;100941.13;5288530;28;20035;-83
2024/03/12 01:44:02;;;;;;;33.83;22.42;;;;;;;9.42;100.00;100962.41;5287109;28;20044;-82
2024/03/12 01:46:35;;;;;;;34.75;23.90;;;;;;;9.35;100.00;100943.75;5288768;28;20043;-82
2024/03/12 01:49:10;;;;;;;35.67;22.27;;;;;;;9.35;100.00;100961.22;5286643;28;20028;-83
2024/03/12 01:51:43;;;;;;;35.55;24.98;;;;;;;9.30;100.00;100956.34;5289591;28;20031;-82
2024/03/12 01:54:15;;;;;;;31.80;22.50;;;;;;;9.40;100.00;100961.72;5290200;28;20040;-84
2024/03/12 01:56:47;;;;;;;33.90;23.45;;;;;;;9.36;100.00;100963.72;5269568;28;20203;-84
2024/03/12 01:59:19;;;;;;;31.20;23.00;;;;;;;9.30;100.00;100961.59;5287501;28;20036;-82
2024/03/12 02:02:00;;;;;;;38.25;23.52;;;;;;;9.44;100.00;100965.75;5288659;28;20032;-84
2024/03/12 02:04:32;;;;;;;37.83;23.70;;;;;;;9.31;100.00;100965.84;5289042;28;20027;-84
2024/03/12 02:07:04;;;;;;;33.85;23.77;;;;;;;9.31;100.00;100970.25;5286757;28;20040;-85
2024/03/12 02:09:36;;;;;;;34.15;24.08;;;;;;;9.25;100.00;100967.16;5287376;28;20051;-84
2024/03/12 02:12:08;;;;;;;31.25;23.08;;;;;;;9.25;100.00;100982.84;5277965;28;20058;-85
2024/03/12 02:14:39;;;;;;;32.33;23.25;;;;;;;9.31;100.00;100976.31;5288698;28;20032;-84
2024/03/12 02:17:11;;;;;;;36.97;23.40;;;;;;;9.25;100.00;100972.41;5298284;28;20187;-85
2024/03/12 02:19:43;;;;;;;35.42;22.38;;;;;;;9.18;100.00;100973.81;5295266;28;20042;-84
2024/03/12 02:22:15;;;;;;;35.42;23.60;;;;;;;9.19;100.00;100961.56;5298489;28;20028;-84
2024/03/12 02:24:49;;;;;;;34.63;22.65;;;;;;;9.18;100.00;100968.59;5299070;28;20429;-83
2024/03/12 02:27:21;;;;;;;34.30;23.92;;;;;;;9.19;100.00;100972.03;5297280;28;20466;-84
2024/03/12 02:29:54;;;;;;;35.78;24.25;;;;;;;9.19;100.00;100972.03;5297714;28;20034;-84
2024/03/12 02:32:26;;;;;;;34.10;22.52;;;;;;;9.23;100.00;100987.34;5294479;28;20219;-85
2024/03/12 02:34:58;;;;;;;35.47;22.77;;;;;;;9.19;100.00;100982.50;5299472;28;20028;-83
2024/03/12 02:37:29;;;;;;;30.23;21.70;;;;;;;9.16;100.00;100994.00;5297897;28;20454;-83
2024/03/12 02:40:02;;;;;;;32.45;22.20;;;;;;;9.15;100.00;100997.56;5296315;28;20034;-85
2024/03/12 02:42:34;;;;;;;29.13;22.80;;;;;;;9.14;100.00;100990.69;5279597;28;20214;-85
2024/03/12 02:45:06;;;;;;;36.35;23.75;;;;;;;9.12;100.00;101004.81;5296642;28;20101;-83
2024/03/12 02:47:38;;;;;;;33.55;23.35;;;;;;;8.97;100.00;100984.13;5293213;28;20036;-84
2024/03/12 02:50:10;;;;;;;31.17;23.35;;;;;;;9.09;100.00;101003.28;5293885;28;20028;-83
2024/03/12 02:52:42;;;;;;;35.50;22.42;;;;;;;9.12;100.00;101013.47;5299961;28;20123;-84
2024/03/12 02:55:14;;;;;;;32.05;23.50;;;;;;;9.09;100.00;101011.13;5295399;28;20024;-85
2024/03/12 02:57:47;;;;;;;35.88;24.38;;;;;;;9.13;100.00;101019.53;5274895;28;20036;-84
2024/03/12 03:00:19;;;;;;;;;;;;;;;9.68;100.00;101020.53;5281224;28;20039;-84
2024/03/12 03:02:54;;;;;;;31.90;22.05;;;;;;;9.14;100.00;101018.63;5294964;28;19919;-83
2024/03/12 03:05:26;;;;;;;32.38;21.83;;;;;;;9.09;100.00;101018.97;5294872;28;20031;-86
2024/03/12 03:07:58;;;;;;;33.65;21.83;;;;;;;9.06;100.00;101011.34;5291968;28;20600;-83
2024/03/12 03:10:29;;;;;;;34.45;22.15;;;;;;;9.01;100.00;101009.06;5291827;28;20034;-82
2024/03/12 03:13:01;;;;;;;33.90;21.98;;;;;;;9.01;100.00;101009.06;5284038;28;20037;-83
2024/03/12 03:15:33;;;;;;;32.45;21.83;;;;;;;9.06;100.00;101013.97;5289259;28;20038;-85
2024/03/12 03:18:05;;;;;;;36.97;23.65;;;;;;;9.00;100.00;101010.03;5286919;28;20028;-83
2024/03/12 03:20:37;;;;;;;34.40;23.58;;;;;;;9.01;100.00;101023.91;5287834;28;20382;-83
2024/03/12 03:23:09;;;;;;;34.72;22.48;;;;;;;9.00;100.00;101019.66;5287487;28;20041;-83
2024/03/12 03:25:41;;;;;;;32.90;21.50;;;;;;;9.05;100.00;101027.97;5284539;28;20508;-82
2024/03/12 03:28:14;;;;;;;32.63;22.02;;;;;;;9.05;100.00;101027.97;5287507;28;20023;-83
2024/03/12 03:30:46;;;;;;;33.97;22.70;;;;;;;9.08;100.00;101024.28;5285402;28;20036;-85
2024/03/12 03:33:18;;;;;;;31.13;21.55;;;;;;;9.00;100.00;101027.47;5284897;28;20368;-83
2024/03/12 03:35:51;;;;;;;34.25;22.20;;;;;;;9.02;100.00;101031.66;5278314;28;20516;-83
2024/03/12 03:38:27;;;;;;;34.85;21.67;;;;;;;9.05;100.00;101037.59;5283180;28;20034;-83
2024/03/12 03:40:58;;;;;;;30.67;21.02;;;;;;;9.00;100.00;101030.94;5286207;28;20558;-82
2024/03/12 03:43:30;;;;;;;33.40;21.02;;;;;;;8.94;100.00;101039.25;5286536;28;20043;-83
2024/03/12 03:46:05;;;;;;;33.20;20.08;;;;;;;9.06;100.00;101042.72;5285003;28;20032;-83
2024/03/12 03:48:37;;;;;;;27.67;20.20;;;;;;;9.02;100.00;101046.50;5283263;28;20200;-82
2024/03/12 03:51:10;;;;;;;25.83;18.67;;;;;;;9.02;100.00;101052.56;5284448;28;20040;-83
2024/03/12 03:53:41;;;;;;;25.77;17.45;;;;;;;9.01;100.00;101050.06;5267048;28;20051;-83
2024/03/12 03:56:15;;;;;;;24.02;18.40;;;;;;;9.01;100.00;101050.06;5285399;28;20047;-82
2024/03/12 03:58:47;;;;;;;26.38;19.65;;;;;;;9.04;100.00;101059.44;5285037;28;20054;-82
2024/03/12 04:01:19;;;;;;;26.55;19.13;;;;;;;8.94;100.00;101049.69;5284068;28;20032;-84
2024/03/12 04:03:55;;;;;;;25.67;17.90;;;;;;;9.09;100.00;101065.16;5258147;28;20052;-82
2024/03/12 04:06:27;;;;;;;24.98;17.42;;;;;;;9.07;100.00;101056.63;5286394;28;20036;-82
2024/03/12 04:09:04;;;;;;;22.35;17.27;;;;;;;9.11;100.00;101066.72;5283447;28;20079;-85
2024/03/12 04:11:36;;;;;;;23.98;18.60;;;;;;;9.04;100.00;101062.91;5286166;28;20028;-82
2024/03/12 04:14:09;;;;;;;22.92;16.75;;;;;;;8.99;100.00;101062.41;5288133;28;20032;-83
2024/03/12 04:16:40;;;;;;;23.07;16.47;;;;;;;9.05;100.00;101075.00;5290134;28;20039;-84
2024/03/12 04:19:13;;;;;;;23.90;17.38;;;;;;;9.07;100.00;101080.97;5294053;28;20032;-83
2024/03/12 04:21:45;;;;;;;22.88;17.15;;;;;;;9.09;100.00;101080.84;5291908;28;20028;-83
2024/03/12 04:24:17;;;;;;;23.77;17.40;;;;;;;9.07;100.00;101083.56;5295147;28;20066;-82
2024/03/12 04:26:48;;;;;;;28.30;17.83;;;;;;;9.07;100.00;101093.19;5293904;28;20520;-82
2024/03/12 04:29:20;;;;;;;27.13;17.52;;;;;;;9.06;100.00;101092.38;5291761;28;20034;-82
2024/03/12 04:31:55;;;;;;;24.80;17.17;;;;;;;9.05;100.00;101098.53;5273671;28;20036;-82
2024/03/12 04:34:26;;;;;;;27.95;18.05;;;;;;;9.04;100.00;101099.47;5293889;28;20032;-82
2024/03/12 04:36:58;;;;;;;26.88;17.58;;;;;;;9.00;100.00;101104.09;5290722;28;20032;-82
2024/03/12 04:39:31;;;;;;;29.13;17.83;;;;;;;8.85;100.00;101094.78;5282311;28;20032;-82
2024/03/12 04:42:05;;;;;;;30.90;18.60;;;;;;;8.97;100.00;101109.53;5279688;28;20036;-82
2024/03/12 04:44:36;;;;;;;29.13;18.08;;;;;;;8.93;100.00;101105.50;5280792;28;20432;-82
2024/03/12 04:47:09;;;;;;;32.22;18.80;;;;;;;8.89;100.00;101093.59;5286259;28;20024;-82
2024/03/12 04:49:41;;;;;;;30.42;20.27;;;;;;;9.03;100.00;101108.28;5284201;28;20028;-82
2024/03/12 04:52:14;;;;;;;28.85;18.80;;;;;;;8.92;100.00;101101.22;5282471;28;20050;-82
2024/03/12 04:54:46;;;;;;;29.05;18.83;;;;;;;9.07;100.00;101119.34;5284120;28;20036;-82
2024/03/12 04:57:18;;;;;;;31.42;18.60;;;;;;;9.00;100.00;101125.00;5282974;28;20024;-82
2024/03/12 04:59:50;;;;;;;28.80;18.85;;;;;;;8.97;100.00;101124.41;5284230;28;20028;-82
2024/03/12 05:02:22;;;;;;;28.42;17.48;;;;;;;8.90;100.00;101124.03;5286335;28;20088;-82
2024/03/12 05:04:54;;;;;;;34.58;18.83;;;;;;;8.97;100.00;101133.06;5284769;28;20028;-82
2024/03/12 05:07:26;;;;;;;30.85;18.33;;;;;;;8.95;100.00;101132.34;5285635;28;20502;-82
2024/03/12 05:09:59;;;;;;;32.53;18.55;;;;;;;8.91;100.00;101130.91;5285203;28;20039;-82
2024/03/12 05:12:31;;;;;;;30.02;19.13;;;;;;;8.99;100.00;101143.41;5285560;28;21018;-82
2024/03/12 05:15:04;;;;;;;27.80;19.27;;;;;;;8.97;100.00;101142.69;5277407;28;20370;-82
2024/03/12 05:17:36;;;;;;;;;;;;;;;9.61;100.00;101144.91;5286105;28;20036;-82
2024/03/12 05:20:17;;;;;;;32.15;18.50;;;;;;;8.87;100.00;101126.88;5283890;28;20278;-82
2024/03/12 05:22:49;;;;;;;28.25;17.95;;;;;;;8.95;100.00;101155.88;5288698;28;20043;-82
2024/03/12 05:25:26;;;;;;;31.13;18.30;;;;;;;8.97;100.00;101160.97;5287218;28;20047;-82
2024/03/12 05:27:59;;;;;;;32.85;18.13;;;;;;;8.91;100.00;101156.22;5288327;28;20504;-82
2024/03/12 05:30:30;;;;;;;30.27;18.50;;;;;;;8.98;100.00;101165.28;5288876;28;20040;-82
2024/03/12 05:33:04;;;;;;;25.88;17.80;;;;;;;8.99;100.00;101170.38;5291245;28;20023;-82
2024/03/12 05:35:38;;;;;;;25.42;16.63;;;;;;;8.91;100.00;101158.84;5285805;28;20037;-82
2024/03/12 05:41:04;;;;;;;26.67;15.63;;;;;;;8.96;100.00;101181.06;5288793;28;20287;-82
2024/03/12 05:49:19;;;;;;;22.60;16.10;;;;;;;8.99;100.00;101196.53;5288078;28;20040;-82
2024/03/12 05:51:53;;;;;;;24.98;14.75;;;;;;;8.97;100.00;101187.94;5287451;28;20035;-83
2024/03/12 05:54:24;;;;;;;23.73;14.93;;;;;;;8.95;100.00;101192.47;5290993;28;20039;-82
2024/03/12 05:56:56;;;;;;;23.00;15.32;;;;;;;9.03;100.00;101197.13;5284984;28;20028;-81
2024/03/12 05:59:28;;;;;;;27.58;15.70;;;;;;;8.97;100.00;101194.94;5282859;28;20036;-81
2024/03/12 06:02:00;;;;;;;25.58;16.73;;;;;;;9.04;100.00;101203.19;5284311;28;20040;-81
2024/03/12 06:04:32;;;;;;;29.77;16.42;;;;;;;9.05;100.00;101207.47;5289459;28;20039;-81
2024/03/12 06:07:04;;;;;;;24.42;16.25;;;;;;;9.05;100.00;101210.06;5268807;28;20359;-81
2024/03/12 06:09:36;;;;;;;23.55;14.77;;;;;;;9.06;100.00;101220.44;5285006;28;21305;-81
2024/03/12 06:12:08;;;;;;;23.63;16.17;;;;;;;9.05;100.00;101226.59;5289886;28;20383;-81
2024/03/12 06:14:40;;;;;;;23.48;15.75;;;;;;;9.07;100.00;101229.09;5289984;28;20055;-81
2024/03/12 06:17:12;;;;;;;25.65;16.63;;;;;;;9.04;100.00;101232.78;5287986;28;20024;-81
2024/03/12 06:19:44;;;;;;;25.00;15.90;;;;;;;9.10;100.00;101234.94;5284249;28;20502;-82
2024/03/12 06:22:17;;;;;;;22.65;16.50;;;;;;;9.04;100.00;101224.09;5285713;28;20038;-82
2024/03/12 06:24:49;;;;;;;24.65;16.08;;;;;;;9.12;100.00;101238.28;5289032;28;20453;-81
2024/03/12 06:27:21;;;;;;;29.17;17.55;;;;;;;9.12;100.00;101238.28;5287748;28;20032;-81
2024/03/12 06:29:53;;;;;;;22.33;15.77;;;;;;;9.06;100.00;101236.13;5283566;28;20039;-81
2024/03/12 06:32:31;;;;;;;20.95;16.42;;;;;;;9.11;100.00;101247.06;5288957;28;20043;-81
2024/03/12 06:35:03;;;;;;;24.90;15.93;;;;;;;9.09;100.00;101248.97;5288198;28;20031;-81
2024/03/12 06:37:35;;;;;;;24.02;16.10;;;;;;;9.02;100.00;101230.28;5283060;28;20032;-81
2024/03/12 06:40:07;;;;;;;23.35;16.60;;;;;;;8.99;100.00;101229.66;5283183;28;20102;-81
2024/03/12 06:42:41;;;;;;;25.98;17.73;;;;;;;9.10;100.00;101252.41;5285633;28;20043;-81
2024/03/12 06:45:13;;;;;;;24.45;16.05;;;;;;;9.10;100.00;101260.25;5288187;28;20452;-81
2024/03/12 06:47:48;;;;;;;24.58;17.95;;;;;;;9.05;100.00;101254.50;5285309;28;20293;-81
2024/03/12 06:50:19;;;;;;;25.88;17.98;;;;;;;8.97;100.00;101255.06;5285099;28;20039;-81
2024/03/12 06:52:53;;;;;;;26.05;17.38;;;;;;;9.05;100.00;101264.97;5288815;28;20032;-80
2024/03/12 06:55:24;;;;;;;25.33;18.70;;;;;;;9.04;100.00;101269.34;5289021;28;20027;-81
2024/03/12 06:58:02;;;;;;;24.27;17.30;;;;;;;8.98;100.00;101267.19;5286689;28;20108;-81
2024/03/12 07:00:36;;;;;;;23.58;16.35;;;;;;;8.93;100.00;101257.06;5288556;28;20036;-81
2024/03/12 07:03:09;;;;;;;27.85;18.08;;;;;;;9.02;100.00;101269.47;5287855;28;20476;-81
2024/03/12 07:05:46;;;;;;;25.20;17.98;;;;;;;9.04;100.00;101273.75;5285119;28;20032;-81
2024/03/12 07:08:21;;;;;;;23.38;17.58;;;;;;;8.95;100.00;101263.03;5280198;28;20494;-81
2024/03/12 07:10:55;;;;;;;26.05;18.10;;;;;;;9.04;100.00;101286.81;5286263;28;20039;-81
2024/03/12 07:13:26;;;;;;;25.92;18.42;;;;;;;9.05;100.00;101281.47;5285934;28;20023;-81
2024/03/12 07:16:00;;;;;;;29.55;19.55;;;;;;;9.04;100.00;101281.59;5288339;28;20504;-81
2024/03/12 07:18:31;;;;;;;25.20;20.02;;;;;;;9.08;100.00;101286.47;5288766;28;20755;-81
2024/03/12 07:21:03;;;;;;;27.23;18.83;;;;;;;9.03;100.00;101280.75;5283498;28;20034;-81
2024/03/12 07:23:37;;;;;;;27.15;18.95;;;;;;;8.99;100.00;101272.31;5289659;28;20028;-81
2024/03/12 07:26:09;;;;;;;26.70;19.08;;;;;;;9.07;100.00;101287.44;5267733;28;20126;-81
2024/03/12 07:28:42;;;;;;;29.02;19.20;;;;;;;9.08;100.00;101286.47;5286948;28;20762;-81
2024/03/12 07:31:15;;;;;;;29.85;19.00;;;;;;;9.07;100.00;101284.00;5286193;28;20429;-81
2024/03/12 07:33:48;;;;;;;27.77;17.90;;;;;;;9.12;100.00;101287.09;5285103;28;20028;-81
2024/03/12 07:36:21;;;;;;;24.67;18.00;;;;;;;9.05;100.00;101278.03;5288131;28;20259;-81
2024/03/12 07:38:52;;;;;;;28.88;18.25;;;;;;;9.10;100.00;101291.63;5268749;28;20497;-82
2024/03/12 07:41:26;;;;;;;24.27;17.55;;;;;;;9.07;100.00;101291.84;5280245;28;20031;-82
2024/03/12 07:43:57;;;;;;;24.48;18.08;;;;;;;9.08;100.00;101285.66;5285191;28;20035;-82
2024/03/12 07:46:29;;;;;;;25.73;18.55;;;;;;;9.15;100.00;101292.94;5261177;28;20039;-82
2024/03/12 07:49:01;;;;;;;22.05;18.30;;;;;;;9.18;100.00;101300.56;5278958;28;20491;-82
2024/03/12 07:51:34;;;;;;;25.08;19.23;;;;;;;9.23;100.00;101308.91;5283404;28;20044;-82
2024/03/12 07:54:06;;;;;;;28.35;19.77;;;;;;;9.25;100.00;101303.59;5281513;28;20682;-82
2024/03/12 07:56:39;;;;;;;27.08;19.90;;;;;;;9.20;100.00;101308.31;5277171;28;20047;-82
2024/03/12 07:59:12;;;;;;;27.48;18.15;;;;;;;9.33;100.00;101316.13;5284948;28;20539;-82
2024/03/12 08:01:46;;;;;;;24.05;18.10;;;;;;;9.32;100.00;101315.28;5284298;28;20647;-82
2024/03/12 08:04:19;;;;;;;28.80;19.17;;;;;;;9.25;100.00;101306.22;5283012;28;20039;-83
2024/03/12 08:06:52;;;;;;;23.97;18.40;;;;;;;9.34;100.00;101325.63;5282909;28;20031;-82
2024/03/12 08:09:23;;;;;;;26.33;18.58;;;;;;;9.28;100.00;101303.38;5284646;28;20755;-82
2024/03/12 08:11:56;;;;;;;26.38;18.60;;;;;;;9.33;100.00;101324.78;5284843;28;20043;-82
2024/03/12 08:14:30;;;;;;;27.47;18.77;;;;;;;9.35;100.00;101317.66;5284659;28;20035;-82
2024/03/12 08:17:04;;;;;;;28.92;17.63;;;;;;;9.29;100.00;101312.88;5285620;28;20030;-82
2024/03/12 08:19:37;;;;;;;26.95;18.13;;;;;;;9.38;100.00;101327.91;5285187;28;20482;-82
2024/03/12 08:22:09;;;;;;;;;;;;;;;10.08;100.00;101336.78;5281776;28;20758;-82
2024/03/12 08:24:41;;;;;;;24.10;16.85;;;;;;;9.49;100.00;101335.81;5283177;28;19992;-82
2024/03/12 08:27:14;;;;;;;26.40;17.48;;;;;;;9.48;100.00;101344.59;5284967;28;20422;-82
2024/03/12 08:29:47;;;;;;;22.45;17.58;;;;;;;9.52;100.00;101339.16;5285243;28;20032;-82
2024/03/12 08:32:20;;;;;;;25.15;17.10;;;;;;;9.50;100.00;101342.69;5287184;28;20027;-83
2024/03/12 08:34:53;;;;;;;26.13;17.27;;;;;;;9.53;100.00;101340.81;5287957;28;20035;-82
2024/03/12 08:37:27;;;;;;;22.85;18.30;;;;;;;9.50;100.00;101344.47;5286708;28;20032;-82
2024/03/12 08:40:00;;;;;;;25.13;18.83;;;;;;;9.43;100.00;101344.13;5265815;28;20040;-82
2024/03/12 08:42:32;;;;;;;24.75;18.90;;;;;;;9.55;100.00;101350.25;5286548;28;20387;-82
2024/03/12 08:45:04;;;;;;;23.75;18.48;;;;;;;9.65;100.00;101355.63;5284484;28;20110;-83
2024/03/12 08:47:37;;;;;;;24.20;18.73;;;;;;;9.69;100.00;101355.28;5287140;28;20031;-82
2024/03/12 08:50:10;;;;;;;24.65;19.65;;;;;;;9.71;100.00;101352.56;5282569;28;20031;-82
2024/03/12 08:52:42;;;;;;;28.40;20.20;;;;;;;9.78;100.00;101355.59;5287535;28;20043;-83
2024/03/12 08:55:15;;;;;;;27.50;19.83;;;;;;;9.83;100.00;101359.50;5284798;28;20032;-83
2024/03/12 08:57:48;;;;;;;29.97;22.60;;;;;;;9.82;100.00;101351.78;5286710;28;20506;-82
2024/03/12 09:00:20;;;;;;;35.08;24.05;;;;;;;9.92;100.00;101361.44;5283368;28;20767;-82
2024/03/12 09:02:53;;;;;;;31.27;23.60;;;;;;;10.02;100.00;101358.16;5285429;28;20383;-82
2024/03/12 09:05:25;;;;;;;30.88;22.85;;;;;;;10.07;100.00;101367.31;5286831;28;20028;-82
2024/03/12 09:07:57;;;;;;;32.75;25.88;;;;;;;10.07;100.00;101358.63;5282657;28;20055;-82
2024/03/12 09:10:29;;;;;;;33.38;25.92;;;;;;;10.13;100.00;101366.06;5266374;28;20039;-81
2024/03/12 09:13:02;;;;;;;32.60;27.00;;;;;;;10.27;100.00;101371.13;5284445;28;20669;-82
2024/03/12 09:15:34;;;;;;;33.85;26.98;;;;;;;10.34;100.00;101374.09;5284232;28;20293;-82
2024/03/12 09:18:06;;;;;;;35.15;27.85;;;;;;;10.43;100.00;101374.25;5282990;28;20040;-81
2024/03/12 09:20:38;;;;;;;34.25;27.48;;;;;;;10.46;100.00;101373.19;5285593;28;20032;-83
2024/03/12 09:23:10;;;;;;;35.65;27.73;;;;;;;10.50;100.00;101385.09;5285548;28;20667;-82
2024/03/12 09:25:42;;;;;;;32.38;27.38;;;;;;;10.48;100.00;101368.66;5281786;28;20464;-82
2024/03/12 09:28:17;;;;;;;34.38;27.80;;;;;;;10.63;100.00;101372.72;5286124;28;20028;-82
2024/03/12 09:30:49;;;;;;;37.70;27.95;;;;;;;10.71;100.00;101377.38;5284078;28;20043;-82
2024/03/12 09:33:21;;;;;;;35.80;29.05;;;;;;;10.69;100.00;101381.91;5285920;28;20020;-82
2024/03/12 09:35:53;;;;;;;36.47;28.40;;;;;;;10.74;100.00;101378.94;5283135;28;20504;-82
2024/03/12 09:38:25;;;;;;;35.45;29.75;;;;;;;10.79;100.00;101374.16;5283086;28;20393;-82
2024/03/12 09:40:59;;;;;;;36.88;29.90;;;;;;;10.90;100.00;101382.88;5285828;28;20040;-82
2024/03/12 09:43:35;;;;;;;35.10;27.63;;;;;;;11.04;100.00;101367.88;5281431;28;20036;-82
2024/03/12 09:46:07;;;;;;;34.45;28.30;;;;;;;10.94;100.00;101367.72;5286880;28;20421;-82
2024/03/12 09:48:42;;;;;;;33.17;28.63;;;;;;;10.99;100.00;101381.34;5284058;28;20044;-82
2024/03/12 09:51:14;;;;;;;33.50;28.70;;;;;;;11.04;100.00;101379.19;5284579;28;20043;-82
2024/03/12 09:53:46;;;;;;;40.70;28.65;;;;;;;10.98;100.00;101378.81;5287164;28;20020;-83
2024/03/12 09:56:20;;;;;;;33.80;29.20;;;;;;;11.11;100.00;101369.88;5283010;28;20032;-82
2024/03/12 09:58:52;;;;;;;34.08;28.35;;;;;;;11.12;100.00;101373.34;5288439;28;20040;-82
2024/03/12 10:01:25;;;;;;;31.80;27.33;;;;;;;11.07;100.00;101367.63;5293050;28;20051;-82
2024/03/12 10:03:57;;;;;;;32.65;27.40;;;;;;;11.11;100.00;101380.38;5292043;28;20292;-83
2024/03/12 10:06:29;;;;;;;33.65;27.42;;;;;;;10.95;100.00;101362.38;5286036;28;20430;-82
2024/03/12 10:09:01;;;;;;;32.40;27.20;;;;;;;11.13;100.00;101375.81;5276187;28;20044;-82
2024/03/12 10:11:33;;;;;;;34.13;28.17;;;;;;;11.24;100.00;101382.84;5279913;28;20580;-82
2024/03/12 10:14:05;;;;;;;31.83;27.77;;;;;;;11.17;100.00;101377.28;5277524;28;20024;-82
2024/03/12 10:16:38;;;;;;;33.97;26.92;;;;;;;10.97;100.00;101372.75;5279703;28;20038;-82
2024/03/12 10:19:18;;;;;;;33.30;27.73;;;;;;;11.26;100.00;101386.19;5277595;28;20032;-83
2024/03/12 10:21:50;;;;;;;32.88;26.92;;;;;;;11.10;100.00;101373.47;5274028;28;20033;-82
2024/03/12 10:24:22;;;;;;;30.95;26.02;;;;;;;11.12;100.00;101376.78;5274618;28;20032;-83
2024/03/12 10:27:01;;;;;;;34.47;26.17;;;;;;;11.26;100.00;101380.13;5276359;28;20201;-83
2024/03/12 10:29:35;;;;;;;30.98;26.08;;;;;;;11.27;100.00;101374.75;5275057;28;20020;-83
2024/03/12 10:32:18;;;;;;;38.55;28.00;;;;;;;11.48;100.00;101372.22;5268973;28;20025;-82
2024/03/12 10:34:52;;;;;;;36.33;28.27;;;;;;;11.42;100.00;101380.56;5262713;28;20761;-82
2024/03/12 10:37:35;;;;;;;34.50;26.80;;;;;;;11.29;100.00;101385.97;5271954;28;20028;-82
2024/03/12 10:40:18;;;;;;;32.08;27.23;;;;;;;11.37;100.00;101391.44;5275000;28;20039;-83
2024/03/12 10:42:58;;;;;;;34.88;27.58;;;;;;;11.23;100.00;101383.81;5275188;28;20041;-83
2024/03/12 10:45:30;;;;;;;33.15;27.52;;;;;;;11.07;100.00;101385.97;5272279;28;20509;-83
2024/03/12 10:48:05;;;;;;;33.22;28.25;;;;;;;11.01;100.00;101389.91;5270502;28;20203;-83
2024/03/12 10:50:42;;;;;;;30.30;25.73;;;;;;;11.04;100.00;101391.47;5269996;28;20040;-83
2024/03/12 10:53:14;;;;;;;31.80;25.80;;;;;;;10.90;100.00;101388.09;5269041;28;20623;-83
2024/03/12 10:55:47;;;;;;;31.42;25.52;;;;;;;10.97;100.00;101398.97;5267723;28;20055;-82
2024/03/12 10:58:21;;;;;;;31.00;24.80;;;;;;;10.88;100.00;101370.84;5273451;28;20025;-83
2024/03/12 11:00:54;;;;;;;34.08;26.48;;;;;;;10.96;100.00;101386.81;5270751;28;20028;-83
2024/03/12 11:03:27;;;;;;;30.63;25.10;;;;;;;11.13;100.00;101385.47;5270065;28;20037;-82
2024/03/12 11:05:59;;;;;;;;;;;;;;;11.81;100.00;101371.25;5271793;28;20294;-82
2024/03/12 11:08:31;;;;;;;34.72;24.80;;;;;;;11.28;100.00;101365.09;5263899;28;19920;-82
2024/03/12 11:11:08;;;;;;;32.70;22.55;;;;;;;11.37;100.00;101380.09;5268338;28;20029;-82
2024/03/12 11:13:40;;;;;;;31.60;23.45;;;;;;;11.43;100.00;101385.69;5270805;28;20045;-82
2024/03/12 11:16:17;;;;;;;31.67;22.77;;;;;;;11.49;100.00;101384.38;5244578;28;20037;-82
2024/03/12 11:18:49;;;;;;;32.33;25.58;;;;;;;11.48;100.00;101384.47;5270479;28;20028;-82
2024/03/12 11:21:31;;;;;;;33.28;25.02;;;;;;;11.74;100.00;101385.84;5271570;28;20619;-82
2024/03/12 11:24:03;;;;;;;32.72;24.38;;;;;;;11.68;100.00;101376.69;5270376;28;20369;-83
2024/03/12 11:26:36;;;;;;;31.35;24.17;;;;;;;11.89;100.00;101376.78;5272204;28;20040;-82
2024/03/12 11:29:11;;;;;;;;;;;;;;;12.65;100.00;101379.19;5272435;28;20028;-82
2024/03/12 11:31:43;;;;;;;33.22;24.58;;;;;;;12.01;100.00;101371.44;5273224;28;19927;-82
2024/03/12 11:34:31;;;;;;;36.17;25.77;;;;;;;12.30;100.00;101371.66;5240109;28;20049;-81
2024/03/12 11:37:14;;;;;;;33.97;26.42;;;;;;;12.21;100.00;101385.56;5271805;28;20029;-81
2024/03/12 11:39:46;;;;;;;33.33;26.30;;;;;;;12.07;100.00;101356.03;5273802;28;20033;-81
2024/03/12 11:42:18;;;;;;;34.50;27.17;;;;;;;12.09;100.00;101376.91;5271464;28;20185;-82
2024/03/12 11:44:55;;;;;;;35.50;27.27;;;;;;;12.15;100.00;101365.88;5274112;28;20036;-82